Surface/Precipitation History
01/17/2017 23:39  to  1/18/2017 23:39
Change End Date:
Date/Time
(MST)
Sf
Temp Chem Water Layer Surface Precipitation
Sfc Pvt Sub Frz Factor Pct Dpth DpthThk IcePct Cond Salin FI Type Intens Accum Rate
01/18/2017 23:30 Chemically Wet 32.0F - 27F 32F 95 1% 0.00 in - 0% 2 mhos 191 - Other Other 0.00 in -
01/18/2017 23:24 Chemically Wet 31.8F - 27F 32F 95 1% 0.00 in - 0% 3 mhos 359 - Other Other 0.00 in -
01/18/2017 23:15 Wet 32.2F - 27F 32F 95 0% 0.00 in - 0% 1 mhos 113 - Other Other 0.00 in -
01/18/2017 23:14 Chemically Wet 32.0F - 27F 32F 95 1% 0.00 in - 0% 2 mhos 189 - Other Other 0.00 in -
01/18/2017 23:04 Chemically Wet 31.8F - 27F 32F 95 1% 0.00 in - 0% 4 mhos 379 - Other Other 0.00 in -
01/18/2017 23:00 Chemically Wet 32.0F - 27F 32F 95 1% 0.00 in - 0% 2 mhos 233 - Other Other 0.00 in -
01/18/2017 22:54 Chemically Wet 31.8F - 27F 32F 95 1% - - 12% 2 mhos 169 - Other Other 0.00 in -
01/18/2017 22:45 Chemically Wet 31.8F - 27F 31F 95 2% 0.00 in - 0% 5 mhos 540 - Other Other 0.00 in -
01/18/2017 22:44 Chemically Wet 31.8F - 27F 31F 95 2% 0.00 in - 0% 5 mhos 547 - Other Other 0.00 in -
01/18/2017 22:34 Wet 32.2F - 27F 31F 95 2% 0.00 in - 0% 4 mhos 455 - Other Other 0.00 in -
01/18/2017 22:30 Wet 32.2F - 27F 31F 95 2% 0.00 in - 0% 6 mhos 610 - Other Other 0.00 in -
01/18/2017 22:24 Wet 32.2F - 27F 32F 95 1% 0.00 in - 0% 2 mhos 241 - Other Other 0.00 in -
01/18/2017 22:15 Wet 32.2F - 27F 32F 95 1% 0.00 in - 0% 2 mhos 233 - Other Other 0.00 in -
01/18/2017 22:14 Wet 32.2F - 27F 31F 95 3% 0.00 in - 0% 6 mhos 687 - Other Other 0.00 in -
01/18/2017 22:04 Chemically Wet 32.0F - 27F 31F 95 3% 0.00 in - 0% 7 mhos 746 - Other Other 0.00 in -
Date/Time
(MST)
Sf
Temp Chem Water Layer Surface Precipitation
Sfc Pvt Sub Frz Factor Pct Dpth DpthThk IcePct Cond Salin FI Type Intens Accum Rate
01/18/2017 22:00 Chemically Wet 32.0F - 27F 31F 95 3% 0.00 in - 0% 8 mhos 885 - Other Other 0.00 in -
01/18/2017 21:54 Wet 32.4F - 27F 31F 95 4% 0.00 in - 0% 10 mhos 1119 - Other Other 0.00 in -
01/18/2017 21:45 Wet 32.9F - 27F 32F 95 1% 0.00 in - 0% 3 mhos 275 - Other Other 0.00 in -
01/18/2017 21:44 Wet 32.7F - 27F 31F 95 2% 0.00 in - 0% 4 mhos 448 - Other Other 0.00 in -
01/18/2017 21:34 Chemically Wet 32.0F - 27F 31F 95 2% 0.00 in - 0% 6 mhos 621 - Other Other 0.00 in -
01/18/2017 21:30 Chemically Wet 32.0F - 27F 31F 95 2% 0.00 in - 0% 5 mhos 522 - Other Other 0.00 in -
01/18/2017 21:24 Wet 32.2F - 27F 32F 95 1% 0.00 in - 0% 4 mhos 378 - Other Other 0.00 in -
01/18/2017 21:15 Wet 32.2F - 27F 31F 95 3% 0.00 in - 0% 8 mhos 828 - Other Other 0.00 in -
01/18/2017 21:14 Wet 32.2F - 27F 31F 95 3% 0.00 in - 0% 7 mhos 802 - Other Other 0.00 in -
01/18/2017 21:04 Wet 32.2F - 27F 31F 95 3% 0.00 in - 0% 7 mhos 798 - Other Other 0.00 in -
01/18/2017 21:00 Wet 32.4F - 27F 31F 95 3% 0.00 in - 0% 7 mhos 752 - Other Other 0.00 in -
01/18/2017 20:54 Wet 32.4F - 27F 31F 95 2% 0.00 in - 0% 5 mhos 507 - Other Other 0.00 in -
01/18/2017 20:45 Wet 32.2F - 27F 31F 95 3% 0.00 in - 0% 7 mhos 729 - Other Other 0.00 in -
01/18/2017 20:44 Wet 32.4F - 27F 31F 95 3% 0.00 in - 0% 7 mhos 712 - Other Other 0.00 in -
01/18/2017 20:34 Wet 32.4F - 27F 31F 95 2% 0.00 in - 0% 6 mhos 638 - Other Other 0.00 in -
Date/Time
(MST)
Sf
Temp Chem Water Layer Surface Precipitation
Sfc Pvt Sub Frz Factor Pct Dpth DpthThk IcePct Cond Salin FI Type Intens Accum Rate
01/18/2017 20:30 Wet 32.2F - 27F 31F 95 2% 0.00 in - 0% 6 mhos 625 - Other Other 0.00 in -
01/18/2017 20:24 Wet 32.4F - 27F 31F 95 2% 0.00 in - 0% 5 mhos 547 - Other Other 0.00 in -
01/18/2017 20:15 Wet 32.5F - 27F 31F 95 2% 0.00 in - 0% 4 mhos 447 - Other Other 0.00 in -
01/18/2017 20:14 Wet 32.5F - 27F 31F 95 2% 0.00 in - 0% 4 mhos 426 - Other Other 0.00 in -
01/18/2017 20:04 Wet 32.9F - 27F 32F 95 2% 0.00 in - 0% 4 mhos 401 - Other Other 0.00 in -
01/18/2017 20:00 Wet 32.9F - 27F 31F 95 2% 0.00 in - 0% 5 mhos 507 - Other Other 0.00 in -
01/18/2017 19:54 Wet 32.9F - 27F 31F 95 2% 0.00 in - 0% 6 mhos 590 - Other Other 0.00 in -
01/18/2017 19:45 Wet 32.7F - 27F 31F 95 2% 0.00 in - 0% 6 mhos 622 - Other Other 0.00 in -
01/18/2017 19:43 Wet 32.7F - 26F 31F 95 2% 0.00 in - 0% 6 mhos 607 - Other Other 0.00 in -
01/18/2017 19:33 Wet 32.9F - 26F 31F 95 2% 0.00 in - 0% 4 mhos 446 - Other Other 0.00 in -
01/18/2017 19:30 Wet 33.1F - 26F 31F 95 2% 0.00 in - 0% 4 mhos 424 - Other Other 0.00 in -
01/18/2017 19:23 Wet 32.7F - 26F 31F 95 2% 0.00 in - 0% 5 mhos 531 - Other Other 0.00 in -
01/18/2017 19:15 Wet 32.9F - 26F 31F 95 2% 0.00 in - 0% 6 mhos 593 - Other Other 0.00 in -
01/18/2017 19:13 Wet 32.9F - 26F 31F 95 2% 0.00 in - 0% 5 mhos 563 - Other Other 0.00 in -
01/18/2017 19:03 Wet 32.7F - 26F 31F 95 2% 0.00 in - 0% 6 mhos 589 - Other Other 0.00 in -
Date/Time
(MST)
Sf
Temp Chem Water Layer Surface Precipitation
Sfc Pvt Sub Frz Factor Pct Dpth DpthThk IcePct Cond Salin FI Type Intens Accum Rate
01/18/2017 19:00 Wet 33.1F - 26F 31F 95 2% 0.00 in - 0% 5 mhos 510 - Other Other 0.00 in -
01/18/2017 18:53 Wet 32.7F - 26F 31F 95 2% 0.00 in - 0% 6 mhos 610 - Other Other 0.00 in -
01/18/2017 18:45 Wet 33.1F - 26F 32F 95 1% 0.00 in - 0% 4 mhos 379 - Other Other 0.00 in -
01/18/2017 18:43 Wet 33.4F - 26F 32F 95 1% 0.00 in - 0% 3 mhos 342 - Other Other 0.00 in -
01/18/2017 18:33 Wet 32.9F - 26F 31F 95 2% 0.00 in - 0% 6 mhos 590 - Other Other 0.00 in -
01/18/2017 18:30 Wet 33.3F - 26F 31F 95 2% 0.00 in - 0% 6 mhos 600 - Other Other 0.00 in -
01/18/2017 18:23 Wet 32.9F - 26F 31F 95 2% 0.00 in - 0% 5 mhos 488 - Other Other 0.00 in -
01/18/2017 18:15 Wet 33.3F - 26F 31F 95 2% 0.00 in - 0% 4 mhos 441 - Other Other 0.00 in -
01/18/2017 18:13 Wet 33.1F - 26F 31F 95 2% 0.00 in - 0% 5 mhos 481 - Other Other 0.00 in -
01/18/2017 18:03 Wet 33.6F - 26F 32F 95 2% 0.00 in - 0% 4 mhos 418 - Other Other 0.00 in -
01/18/2017 18:00 Wet 33.3F - 26F 31F 95 2% 0.00 in - 0% 5 mhos 490 - Other Other 0.00 in -
01/18/2017 17:53 Wet 33.8F - 26F 32F 95 1% 0.00 in - 0% 4 mhos 369 - Other Other 0.00 in -
01/18/2017 17:45 Wet 33.4F - 26F 31F 95 2% 0.00 in - 0% 4 mhos 452 - Other Other 0.00 in -
01/18/2017 17:43 Wet 33.6F - 26F 32F 95 1% 0.00 in - 0% 3 mhos 340 - Other Other 0.00 in -
01/18/2017 17:33 Wet 33.4F - 26F 30F 95 7% 0.00 in - 0% 16 mhos 1734 - Other Other 0.00 in -
Date/Time
(MST)
Sf
Temp Chem Water Layer Surface Precipitation
Sfc Pvt Sub Frz Factor Pct Dpth DpthThk IcePct Cond Salin FI Type Intens Accum Rate
01/18/2017 17:30 Wet 33.6F - 26F 32F 95 2% 0.00 in - 0% 4 mhos 398 - Other Other 0.00 in -
01/18/2017 17:23 Wet 34.0F - 26F 31F 95 3% 0.00 in - 0% 7 mhos 777 - Other Other 0.00 in -
01/18/2017 17:15 Wet 34.5F - 26F 31F 95 4% 0.00 in - 0% 9 mhos 985 - Other Other 0.00 in -
01/18/2017 17:13 Wet 34.3F - 26F 31F 95 2% 0.00 in - 0% 5 mhos 525 - Other Other 0.00 in -
01/18/2017 17:03 Wet 34.0F - 26F 31F 95 2% 0.00 in - 0% 6 mhos 588 - Other Other 0.00 in -
01/18/2017 17:00 Wet 34.0F - 26F 31F 95 2% 0.00 in - 0% 5 mhos 513 - Other Other 0.00 in -
01/18/2017 16:53 Wet 33.6F - 26F 31F 95 2% 0.00 in - 0% 6 mhos 578 - Other Other 0.00 in -
01/18/2017 16:45 Wet 34.0F - 26F 32F 95 2% 0.00 in - 0% 4 mhos 415 - Other Other 0.00 in -
01/18/2017 16:43 Wet 34.0F - 26F 32F 95 2% 0.00 in - 0% 4 mhos 401 - Other Other 0.00 in -
01/18/2017 16:33 Wet 34.3F - 26F 31F 95 3% 0.00 in - 0% 7 mhos 730 - Other Other 0.00 in -
01/18/2017 16:30 Wet 34.5F - 26F 31F 95 2% 0.00 in - 0% 5 mhos 565 - Other Other 0.00 in -
01/18/2017 16:23 Wet 34.5F - 26F 32F 95 1% 0.00 in - 0% 3 mhos 332 - Other Other 0.00 in -
01/18/2017 16:15 Wet 34.7F - 26F 32F 95 2% 0.00 in - 0% 4 mhos 408 - Other Other 0.00 in -
01/18/2017 16:13 Wet 34.9F - 26F 32F 95 1% 0.00 in - 0% 3 mhos 278 - Other Other 0.00 in -
01/18/2017 16:03 Wet 34.9F - 26F 32F 95 1% 0.00 in - 0% 4 mhos 381 - Other Other 0.00 in -
Date/Time
(MST)
Sf
Temp Chem Water Layer Surface Precipitation
Sfc Pvt Sub Frz Factor Pct Dpth DpthThk IcePct Cond Salin FI Type Intens Accum Rate
01/18/2017 16:00 Wet 35.1F - 26F 32F 95 1% 0.00 in - 0% 3 mhos 297 - Other Other 0.00 in -
01/18/2017 15:53 Wet 35.4F - 26F 31F 95 2% 0.00 in - 0% 5 mhos 489 - Other Other 0.00 in -
01/18/2017 15:45 Wet 35.6F - 26F 32F 95 1% 0.00 in - 0% 3 mhos 299 - Other Other 0.00 in -
01/18/2017 15:43 Wet 35.4F - 26F 31F 95 2% 0.00 in - 0% 5 mhos 510 - Other Other 0.00 in -
01/18/2017 15:33 Wet 35.4F - 26F 31F 95 2% 0.00 in - 0% 5 mhos 541 - Other Other 0.00 in -
01/18/2017 15:30 Wet 35.6F - 26F 31F 95 2% 0.00 in - 0% 5 mhos 466 - Other Other 0.00 in -
01/18/2017 15:23 Wet 35.6F - 26F 31F 95 2% 0.00 in - 0% 6 mhos 592 - Other Other 0.00 in -
01/18/2017 15:15 Wet 34.9F - 26F 31F 95 3% 0.00 in - 0% 7 mhos 750 - Other Other 0.00 in -
01/18/2017 15:13 Wet 34.9F - 26F 32F 95 1% 0.00 in - 0% 2 mhos 205 - Other Other 0.00 in -
01/18/2017 15:03 Wet 34.9F - 26F 31F 95 2% 0.00 in - 0% 4 mhos 440 - Other Other 0.00 in -
01/18/2017 15:00 Wet 34.9F - 26F 32F 95 1% 0.00 in - 0% 2 mhos 252 - Other Other 0.00 in -
01/18/2017 14:53 Wet 34.7F - 26F 31F 95 5% 0.00 in - 0% 13 mhos 1310 - Other Other 0.00 in -
01/18/2017 14:45 Wet 34.5F - 26F 32F 95 1% 0.00 in - 0% 3 mhos 318 - Other Other 0.00 in -
01/18/2017 14:43 Wet 34.3F - 26F 32F 95 1% 0.00 in - 0% 2 mhos 250 - Other Other 0.00 in -
01/18/2017 14:33 Wet 33.8F - 26F 31F 95 5% 0.00 in - 0% 12 mhos 1231 - Other Other 0.00 in -
Date/Time
(MST)
Sf
Temp Chem Water Layer Surface Precipitation
Sfc Pvt Sub Frz Factor Pct Dpth DpthThk IcePct Cond Salin FI Type Intens Accum Rate
01/18/2017 14:30 Wet 33.8F - 26F 31F 95 5% 0.00 in - 0% 11 mhos 1193 - Other Other 0.00 in -
01/18/2017 14:22 Wet 33.4F - 26F 32F 95 1% 0.00 in - 0% 2 mhos 243 - Other Other 0.00 in -
01/18/2017 14:15 Wet 32.7F - 26F 31F 95 5% 0.00 in - 0% 12 mhos 1240 - Other Other 0.00 in -
01/18/2017 14:12 Wet 32.4F - 26F 31F 95 5% 0.00 in - 0% 11 mhos 1244 - Other Other 0.00 in -
01/18/2017 14:02 Chemically Wet 31.6F - 26F 31F 95 4% 0.00 in - 0% 10 mhos 1046 - Other Other 0.00 in -
01/18/2017 14:00 Wet 32.5F - 26F 31F 95 4% 0.00 in - 0% 11 mhos 1161 - Other Other 0.00 in -
01/18/2017 13:52 Chemically Wet 31.3F - 26F 31F 95 4% 0.00 in - 0% 9 mhos 964 - Other Other 0.00 in -
01/18/2017 13:45 Chemically Wet 31.5F - 26F 32F 95 1% - - 48% 2 mhos 256 - Other Other 0.00 in -
01/18/2017 13:42 Chemically Wet 31.6F - 26F 31F 95 3% 0.00 in - 0% 6 mhos 700 - Other Other 0.00 in -
01/18/2017 13:32 Chemically Wet 31.5F - 26F 31F 95 3% 0.00 in - 0% 6 mhos 688 - Other Other 0.00 in -
01/18/2017 13:30 Chemically Wet 31.5F - 26F 31F 95 2% - - 11% 4 mhos 443 - Other Other 0.00 in -
01/18/2017 13:22 Chemically Wet 31.6F - 26F 32F 95 1% - - 1% 3 mhos 339 - Other Other 0.00 in -
01/18/2017 13:15 Wet 34.0F - 26F 31F 95 3% 0.00 in - 0% 7 mhos 761 - Other Other 0.00 in -
01/18/2017 13:12 Wet 33.4F - 26F 32F 95 1% 0.00 in - 0% 3 mhos 318 - Other Other 0.00 in -
01/18/2017 13:02 Chemically Wet 32.0F - 26F 31F 95 2% 0.00 in - 0% 5 mhos 522 - Other Other 0.00 in -
Date/Time
(MST)
Sf
Temp Chem Water Layer Surface Precipitation
Sfc Pvt Sub Frz Factor Pct Dpth DpthThk IcePct Cond Salin FI Type Intens Accum Rate
01/18/2017 13:00 Wet 33.1F - 26F 31F 95 2% 0.00 in - 0% 6 mhos 630 - Other Other 0.00 in -
01/18/2017 12:52 Wet 32.7F - 26F 31F 95 2% 0.00 in - 0% 5 mhos 561 - Other Other 0.00 in -
01/18/2017 12:45 Chemically Wet 31.8F - 26F 31F 95 2% 0.00 in - 0% 4 mhos 473 - Other Other 0.00 in -
01/18/2017 12:42 Chemically Wet 32.0F - 26F 31F 95 2% 0.00 in - 0% 5 mhos 576 - Other Other 0.00 in -
01/18/2017 12:32 Chemically Wet 31.5F - 26F 32F 95 1% - - 32% 3 mhos 337 - Other Other 0.00 in -
01/18/2017 12:30 Chemically Wet 31.6F - 25F 32F 95 0% - - 69% 1 mhos 105 - Other Other 0.00 in -
01/18/2017 12:22 Chemically Wet 31.6F - 26F 32F 95 1% - - 14% 3 mhos 296 - Other Other 0.00 in -
01/18/2017 12:15 Chemically Wet 31.6F - 25F 32F 95 1% 0.00 in - 0% 3 mhos 352 - Other Other 0.00 in -
01/18/2017 12:12 Chemically Wet 31.6F - 25F 32F 95 1% - - 2% 3 mhos 336 - Other Other 0.00 in -
01/18/2017 12:02 Chemically Wet 31.6F - 25F 32F 95 1% - - 52% 2 mhos 163 - Other Other 0.00 in -
01/18/2017 12:00 Chemically Wet 31.6F - 25F 32F 95 1% - - 48% 2 mhos 178 - Other Other 0.00 in -
01/18/2017 11:52 Chemically Wet 31.6F - 25F 32F 95 1% - - 61% 1 mhos 134 - Other Other 0.00 in -
01/18/2017 11:45 Chemically Wet 31.6F - 25F 32F 95 0% - - 70% 1 mhos 103 - Other Other 0.00 in -
01/18/2017 11:42 Chemically Wet 31.6F - 25F 32F 95 0% - - 66% 1 mhos 118 - Other Other 0.00 in -
01/18/2017 11:32 Chemically Wet 31.5F - 25F 32F 95 0% - - 76% 1 mhos 118 - Other Other 0.00 in -
Date/Time
(MST)
Sf
Temp Chem Water Layer Surface Precipitation
Sfc Pvt Sub Frz Factor Pct Dpth DpthThk IcePct Cond Salin FI Type Intens Accum Rate
01/18/2017 11:30 Chemically Wet 31.5F - 25F 32F 95 0% - - 76% 1 mhos 119 - Other Other 0.00 in -
01/18/2017 11:22 Chemically Wet 31.5F - 25F 32F 95 0% - - 76% 1 mhos 118 - Other Other 0.00 in -
01/18/2017 11:15 Chemically Wet 31.5F - 25F 32F 95 0% - - 80% 1 mhos 97 - Other Other 0.00 in -
01/18/2017 11:12 Chemically Wet 31.5F - 25F 32F 95 0% - - 80% 1 mhos 98 - Other Other 0.00 in -
01/18/2017 11:02 Chemically Wet 31.3F - 25F 32F 95 0% - - 84% 1 mhos 105 - Other Other 0.00 in -
01/18/2017 11:00 Chemically Wet 31.3F - 25F 32F 95 0% - - 83% 1 mhos 109 - Other Other 0.00 in -
01/18/2017 10:52 Chemically Wet 31.3F - 25F 32F 95 1% - - 79% 1 mhos 134 - Other Other 0.00 in -
01/18/2017 10:45 Chemically Wet 31.3F - 25F 32F 95 1% - - 77% 1 mhos 150 - Other Other 0.00 in -
01/18/2017 10:42 Chemically Wet 31.3F - 25F 32F 95 1% - - 76% 1 mhos 156 - Other Other 0.00 in -
01/18/2017 10:32 Chemically Wet 31.3F - 25F 32F 95 1% - - 76% 1 mhos 154 - Other Other 0.00 in -
01/18/2017 10:30 Chemically Wet 31.3F - 25F 32F 95 1% - - 76% 1 mhos 159 - Other Other 0.00 in -
01/18/2017 10:22 Chemically Wet 31.1F - 25F 32F 95 0% - - 85% 1 mhos 121 - Other Other 0.00 in -
01/18/2017 10:15 Ice Warning 31.1F - 25F 32F 95 1% - - 86% 1 mhos 132 - Other Other 0.00 in -
01/18/2017 10:12 Chemically Wet 31.1F - 25F 32F 95 1% - - 81% 2 mhos 179 - Other Other 0.00 in -
01/18/2017 10:02 Ice Warning 30.6F - 25F 32F 95 1% - - 87% 2 mhos 182 - Other Other 0.00 in -
Date/Time
(MST)
Sf
Temp Chem Water Layer Surface Precipitation
Sfc Pvt Sub Frz Factor Pct Dpth DpthThk IcePct Cond Salin FI Type Intens Accum Rate
01/18/2017 10:00 Ice Warning 30.6F - 25F 32F 95 1% - - 87% 2 mhos 186 - Other Other 0.00 in -
01/18/2017 09:52 Ice Warning 30.4F - 25F 32F 95 1% - - 87% 2 mhos 208 - Other Other 0.00 in -
01/18/2017 09:45 Ice Warning 30.4F - 25F 32F 95 1% - - 87% 2 mhos 207 - Other Other 0.00 in -
01/18/2017 09:42 Ice Warning 30.4F - 25F 32F 95 1% - - 87% 2 mhos 205 - Other Other 0.00 in -
01/18/2017 09:32 Ice Warning 30.6F - 25F 32F 95 1% - - 86% 2 mhos 195 - Other Other 0.00 in -
01/18/2017 09:30 Ice Warning 30.6F - 25F 32F 95 1% - - 86% 2 mhos 193 - Other Other 0.00 in -
01/18/2017 09:22 Chemically Wet 30.6F - 25F 32F 95 1% - - 84% 2 mhos 227 - Other Other 0.00 in -
01/18/2017 09:15 Ice Warning 30.4F - 25F 32F 95 1% - - 88% 2 mhos 183 - Other Other 0.00 in -
01/18/2017 09:12 Chemically Wet 30.4F - 25F 32F 95 1% - - 84% 2 mhos 255 - Other Other 0.00 in -
01/18/2017 09:02 Ice Warning 30.2F - 25F 32F 95 1% - - 86% 2 mhos 242 - Other Other 0.00 in -
01/18/2017 09:00 Ice Warning 30.2F - 25F 32F 95 1% - - 86% 2 mhos 237 - Other Other 0.00 in -
01/18/2017 08:52 Chemically Wet 29.8F - 25F 32F 95 1% - - 84% 3 mhos 322 - Other Other 0.00 in -
01/18/2017 08:45 Chemically Wet 29.8F - 25F 32F 95 1% - - 84% 3 mhos 319 - Other Other 0.00 in -
01/18/2017 08:41 Chemically Wet 29.8F - 25F 32F 95 1% - - 84% 3 mhos 320 - Other Other 0.00 in -
01/18/2017 08:31 Chemically Wet 29.8F - 25F 32F 95 1% - - 84% 3 mhos 323 - Other Other 0.00 in -
Date/Time
(MST)
Sf
Temp Chem Water Layer Surface Precipitation
Sfc Pvt Sub Frz Factor Pct Dpth DpthThk IcePct Cond Salin FI Type Intens Accum Rate
01/18/2017 08:30 Chemically Wet 29.8F - 25F 32F 95 1% - - 84% 3 mhos 323 - Other Other 0.00 in -
01/18/2017 08:21 Chemically Wet 29.8F - 25F 32F 95 1% - - 84% 3 mhos 342 - Other Other 0.00 in -
01/18/2017 08:15 Chemically Wet 29.8F - 25F 32F 95 1% - - 84% 3 mhos 359 - Other Other 0.00 in -
01/18/2017 08:11 Ice Warning 29.8F - 25F 32F 95 1% - - 86% 3 mhos 299 - Other Other 0.00 in -
01/18/2017 08:01 Chemically Wet 29.8F - 25F 32F 95 1% - - 83% 3 mhos 365 - Other Other 0.00 in -
01/18/2017 08:00 Ice Warning 29.8F - 25F 32F 95 1% - - 85% 3 mhos 324 - Other Other 0.00 in -
01/18/2017 07:51 Ice Warning 29.5F - 25F 32F 95 1% - - 86% 3 mhos 342 - Other Other 0.00 in -
01/18/2017 07:45 Chemically Wet 29.1F - 25F 31F 95 2% - - 85% 4 mhos 431 - Other Other 0.00 in -
01/18/2017 07:41 Chemically Wet 28.9F - 25F 31F 95 2% - - 84% 4 mhos 474 - Other Other 0.00 in -
01/18/2017 07:31 Chemically Wet 28.6F - 25F 31F 95 2% - - 82% 6 mhos 630 - Other Other 0.00 in -
01/18/2017 07:30 Chemically Wet 28.6F - 25F 31F 95 2% - - 82% 6 mhos 631 - Other Other 0.00 in -
01/18/2017 07:21 Chemically Wet 28.4F - 25F 31F 95 3% - - 82% 6 mhos 660 - Other Other 0.00 in -
01/18/2017 07:15 Chemically Wet 28.2F - 25F 31F 95 3% - - 82% 6 mhos 670 - Other Other 0.00 in -
01/18/2017 07:11 Chemically Wet 28.2F - 25F 31F 95 2% - - 83% 6 mhos 644 - Other Other 0.00 in -
01/18/2017 07:01 Chemically Wet 28.0F - 25F 31F 95 3% - - 84% 6 mhos 650 - Other Other 0.00 in -
Date/Time
(MST)
Sf
Temp Chem Water Layer Surface Precipitation
Sfc Pvt Sub Frz Factor Pct Dpth DpthThk IcePct Cond Salin FI Type Intens Accum Rate
01/18/2017 07:00 Chemically Wet 28.0F - 25F 31F 95 2% - - 84% 6 mhos 649 - Other Other 0.00 in -
01/18/2017 06:51 Ice Warning 27.7F - 25F 31F 95 2% - - 86% 5 mhos 605 - Other Other 0.00 in -
01/18/2017 06:45 Ice Warning 27.5F - 25F 31F 95 2% - - 89% 4 mhos 487 - Other Other 0.00 in -
01/18/2017 06:41 Ice Warning 26.8F - 25F 31F 95 2% - - 90% 5 mhos 547 - Other Other 0.00 in -
01/18/2017 06:31 Ice Warning 26.6F - 25F 31F 95 2% - - 89% 5 mhos 612 - Other Other 0.00 in -
01/18/2017 06:30 Ice Warning 26.4F - 25F 31F 95 2% - - 91% 5 mhos 535 - Other Other 0.00 in -
01/18/2017 06:21 Ice Warning 27.0F - 25F 32F 95 1% - - 94% 2 mhos 280 - Other Other 0.00 in -
01/18/2017 06:15 Ice Warning 27.0F - 25F 32F 95 1% - - 96% 2 mhos 225 - Other Other 0.00 in -
01/18/2017 06:11 Ice Warning 27.0F - 25F 32F 95 1% - - 94% 2 mhos 283 - Other Other 0.00 in -
01/18/2017 06:01 Ice Warning 27.1F - 25F 32F 95 1% - - 94% 2 mhos 281 - Other Other 0.00 in -
01/18/2017 06:00 Ice Warning 27.0F - 25F 32F 95 1% - - 94% 2 mhos 282 - Other Other 0.00 in -
01/18/2017 05:51 Ice Warning 27.0F - 25F 32F 95 1% - - 94% 2 mhos 284 - Other Other 0.00 in -
01/18/2017 05:45 Ice Warning 27.1F - 25F 32F 95 1% - - 94% 2 mhos 282 - Other Other 0.00 in -
01/18/2017 05:41 Ice Warning 27.1F - 25F 32F 95 1% - - 94% 2 mhos 285 - Other Other 0.00 in -
01/18/2017 05:31 Ice Warning 27.1F - 25F 32F 95 1% - - 94% 2 mhos 277 - Other Other 0.00 in -
Date/Time
(MST)
Sf
Temp Chem Water Layer Surface Precipitation
Sfc Pvt Sub Frz Factor Pct Dpth DpthThk IcePct Cond Salin FI Type Intens Accum Rate
01/18/2017 05:30 Ice Warning 27.1F - 25F 32F 95 1% - - 94% 2 mhos 277 - Other Other 0.00 in -
01/18/2017 05:21 Ice Warning 27.0F - 25F 32F 95 1% - - 95% 2 mhos 274 - Other Other 0.00 in -
01/18/2017 05:15 Ice Warning 26.8F - 25F 32F 95 1% - - 95% 2 mhos 266 - Other Other 0.00 in -
01/18/2017 05:11 Ice Warning 26.8F - 25F 32F 95 1% - - 95% 2 mhos 268 - Other Other 0.00 in -
01/18/2017 05:01 Ice Warning 26.4F - 25F 32F 95 1% - - 95% 2 mhos 276 - Other Other 0.00 in -
01/18/2017 05:00 Ice Warning 26.4F - 24F 32F 95 1% - - 95% 2 mhos 273 - Other Other 0.00 in -
01/18/2017 04:51 Ice Warning 26.2F - 25F 32F 95 1% - - 96% 2 mhos 239 - Other Other 0.00 in -
01/18/2017 04:45 Ice Warning 26.1F - 24F 32F 95 1% - - 96% 2 mhos 214 - Other Other 0.00 in -
01/18/2017 04:41 Ice Warning 26.1F - 25F 32F 95 1% - - 97% 2 mhos 199 - Other Other 0.00 in -
01/18/2017 04:31 Ice Warning 25.9F - 25F 32F 95 1% - - 97% 1 mhos 163 - Other Other 0.00 in -
01/18/2017 04:30 Ice Warning 26.1F - 24F 32F 95 1% - - 97% 1 mhos 161 - Other Other 0.00 in -
01/18/2017 04:21 Ice Warning 26.4F - 24F 32F 95 1% - - 97% 1 mhos 169 - Other Other 0.00 in -
01/18/2017 04:15 Ice Warning 27.9F - 24F 32F 65 1% - - 96% 1 mhos 170 - Other Other 0.00 in -
01/18/2017 04:11 Ice Warning 27.9F - 24F 32F 65 1% - - 96% 1 mhos 170 - Other Other 0.00 in -
01/18/2017 04:01 Ice Warning 27.9F - 24F 32F 65 1% - - 96% 2 mhos 171 - Other Other 0.00 in -
Date/Time
(MST)
Sf
Temp Chem Water Layer Surface Precipitation
Sfc Pvt Sub Frz Factor Pct Dpth DpthThk IcePct Cond Salin FI Type Intens Accum Rate
01/18/2017 04:00 Ice Warning 27.9F - 24F 32F 60 1% - - 96% 2 mhos 171 - Other Other 0.00 in -
01/18/2017 03:51 Ice Warning 27.9F - 24F 32F 95 1% - - 96% 2 mhos 179 - Other Other 0.00 in -
01/18/2017 03:45 Ice Warning 28.0F - 24F 32F 95 1% - - 95% 2 mhos 180 - Other Other 0.00 in -
01/18/2017 03:40 Ice Warning 28.0F - 24F 32F 95 1% - - 95% 2 mhos 182 - Other Other 0.00 in -
01/18/2017 03:30 Ice Warning 28.0F - 24F 32F 95 1% - - 95% 2 mhos 193 - Other Other 0.00 in -
01/18/2017 03:30 Ice Warning 28.0F - 24F 32F 95 1% - - 95% 2 mhos 193 - Other Other 0.00 in -
01/18/2017 03:20 Ice Warning 27.9F - 24F 32F 95 1% - - 95% 2 mhos 207 - Other Other 0.00 in -
01/18/2017 03:15 Ice Warning 27.7F - 24F 32F 95 1% - - 95% 2 mhos 221 - Other Other 0.00 in -
01/18/2017 03:10 Ice Warning 27.7F - 24F 32F 95 1% - - 95% 2 mhos 221 - Other Other 0.00 in -
01/18/2017 03:00 Ice Warning 27.9F - 24F 32F 95 1% - - 95% 2 mhos 222 - Other Other 0.00 in -
01/18/2017 03:00 Ice Warning 27.7F - 24F 32F 95 1% - - 95% 2 mhos 225 - Other Other 0.00 in -
01/18/2017 02:50 Ice Warning 27.7F - 24F 32F 95 1% - - 95% 2 mhos 228 - Other Other 0.00 in -
01/18/2017 02:45 Ice Warning 27.7F - 24F 32F 95 1% - - 95% 2 mhos 235 - Other Other 0.00 in -
01/18/2017 02:40 Ice Warning 27.7F - 24F 32F 95 1% - - 94% 2 mhos 240 - Other Other 0.00 in -
01/18/2017 02:30 Ice Warning 27.7F - 24F 32F 95 1% - - 94% 2 mhos 259 - Other Other 0.00 in -
Date/Time
(MST)
Sf
Temp Chem Water Layer Surface Precipitation
Sfc Pvt Sub Frz Factor Pct Dpth DpthThk IcePct Cond Salin FI Type Intens Accum Rate
01/18/2017 02:30 Ice Warning 27.7F - 24F 32F 95 1% - - 94% 2 mhos 259 - Other Other 0.00 in -
01/18/2017 02:20 Ice Warning 28.0F - 24F 32F 95 1% - - 93% 2 mhos 279 - Other Other 0.00 in -
01/18/2017 02:15 Ice Warning 27.7F - 24F 32F 95 1% - - 93% 3 mhos 299 - Other Other 0.00 in -
01/18/2017 02:10 Ice Warning 27.5F - 24F 32F 95 1% - - 93% 3 mhos 303 - Other Other 0.00 in -
01/18/2017 02:00 Ice Warning 27.5F - 24F 32F 95 1% - - 93% 3 mhos 333 - Other Other 0.00 in -
01/18/2017 02:00 Ice Warning 27.5F - 24F 32F 95 1% - - 93% 3 mhos 337 - Other Other 0.00 in -
01/18/2017 01:50 Ice Warning 27.3F - 24F 32F 95 1% - - 93% 3 mhos 352 - Other Other 0.00 in -
01/18/2017 01:45 Ice Warning 27.1F - 24F 32F 95 1% - - 92% 3 mhos 378 - Other Other 0.00 in -
01/18/2017 01:40 Ice Warning 26.8F - 24F 31F 95 2% - - 92% 4 mhos 434 - Other Other 0.00 in -
01/18/2017 01:30 Ice Warning 26.8F - 24F 31F 95 2% - - 92% 4 mhos 439 - Other Other 0.00 in -
01/18/2017 01:30 Ice Warning 26.6F - 24F 31F 95 2% - - 92% 4 mhos 440 - Other Other 0.00 in -
01/18/2017 01:20 Ice Warning 26.6F - 24F 31F 95 2% - - 91% 4 mhos 462 - Other Other 0.00 in -
01/18/2017 01:15 Ice Warning 26.4F - 24F 31F 95 2% - - 91% 4 mhos 501 - Other Other 0.00 in -
01/18/2017 01:10 Ice Warning 26.4F - 24F 31F 95 2% - - 90% 5 mhos 555 - Other Other 0.00 in -
01/18/2017 01:00 Chemically Wet 26.4F - 24F 31F 95 4% - - 81% 9 mhos 1078 - Other Other 0.00 in -
Date/Time
(MST)
Sf
Temp Chem Water Layer Surface Precipitation
Sfc Pvt Sub Frz Factor Pct Dpth DpthThk IcePct Cond Salin FI Type Intens Accum Rate
01/18/2017 01:00 Chemically Wet 26.4F - 24F 31F 95 4% - - 81% 9 mhos 1078 - Other Other 0.00 in -
01/18/2017 00:50 Chemically Wet 26.6F - 24F 31F 95 4% - - 82% 8 mhos 957 - Other Other 0.00 in -
01/18/2017 00:45 Chemically Wet 26.8F - 24F 31F 95 4% - - 82% 8 mhos 924 - Other Other 0.00 in -
01/18/2017 00:40 Chemically Wet 26.8F - 24F 31F 95 4% - - 83% 8 mhos 915 - Other Other 0.00 in -
01/18/2017 00:30 Chemically Wet 26.6F - 24F 31F 95 4% - - 83% 8 mhos 919 - Other Other 0.00 in -
01/18/2017 00:30 Chemically Wet 26.6F - 24F 31F 95 4% - - 83% 8 mhos 919 - Other Other 0.00 in -
01/18/2017 00:20 Chemically Wet 26.4F - 24F 31F 95 4% - - 84% 8 mhos 934 - Other Other 0.00 in -
01/18/2017 00:15 Chemically Wet 26.2F - 24F 31F 95 4% - - 84% 8 mhos 942 - Other Other 0.00 in -
01/18/2017 00:10 Chemically Wet 26.2F - 24F 31F 95 4% - - 84% 8 mhos 951 - Other Other 0.00 in -
01/18/2017 00:00 Chemically Wet 26.4F - 24F 31F 95 4% - - 82% 8 mhos 978 - Other Other 0.00 in -
01/18/2017 00:00 Chemically Wet 26.4F - 24F 31F 95 4% - - 82% 8 mhos 978 - Other Other 0.00 in -
01/17/2017 23:50 Chemically Wet 26.6F - 24F 31F 95 4% - - 81% 9 mhos 1009 - Other Other 0.00 in -
01/17/2017 23:45 Chemically Wet 26.6F - 24F 31F 95 4% - - 81% 9 mhos 1026 - Other Other 0.00 in -
01/17/2017 23:40 Chemically Wet 26.2F - 24F 31F 95 4% - - 82% 9 mhos 1045 - Other Other 0.00 in -
Change End Date:

Copyright © 1998-2015 Vaisala, Inc.
All Rights Reserved
Send comments about the data to:
SCAN Web ® is a registered trademark of Vaisala, Inc.
SCAN Web Version 6.0